This is the latest recevied weather packets stored in our database for station/object s55g-5. If no packets are shown the sender has not sent any weather packets the latest 10 day(s).
| Time | Temp. | Humidity | Pressure | Rain* | Wind** | Luminosity | Snow |
|---|---|---|---|---|---|---|---|
| 1777707364 | 18.33° C | 52% | 1026 hPa | 0 mm | - | - | - |
| 1777705744 | 16.67° C | 58% | 1026.2 hPa | 0 mm | - | - | - |
| 1777703224 | 13.33° C | 67% | 1026.5 hPa | 0 mm | - | - | - |
| 1777699624 | 10° C | 79% | 1026.6 hPa | 0 mm | - | - | - |
| 1777698544 | 7.78° C | 82% | 1026.8 hPa | 0 mm | - | - | - |
| 1777696563 | 5.56° C | 91% | 1026.6 hPa | 0 mm | - | - | - |
| 1777694044 | 6.11° C | 88% | 1026.5 hPa | 0 mm | - | - | - |
| 1777693637 | 6.11° C | 89% | 1026.8 hPa | 0 mm | - | - | - |
| 1777691883 | 5.56° C | 90% | 1026.5 hPa | 0 mm | - | - | - |
| 1777690444 | 5.56° C | 90% | 1026.8 hPa | 0 mm | - | - | - |
| 1777688824 | 5.56° C | 90% | 1026.7 hPa | 0 mm | - | - | - |
| 1777682164 | 6.67° C | 85% | 1027 hPa | 0 mm | - | - | - |
| 1777676944 | 8.33° C | 79% | 1027 hPa | 0 mm | - | - | - |
| 1777674964 | 8.33° C | 80% | 1027.1 hPa | 0 mm | - | - | - |
| 1777674425 | 8.33° C | 79% | 1027.1 hPa | 0 mm | - | - | - |
| 1777672444 | 9.44° C | 73% | 1027 hPa | 0 mm | - | - | - |
| 1777664704 | 12.22° C | 60% | 1026.2 hPa | 0 mm | - | - | - |
| 1777664164 | 12.22° C | 57% | 1026.1 hPa | 0 mm | - | - | - |
| 1777663624 | 12.22° C | 59% | 1026 hPa | 0 mm | - | - | - |
| 1777654804 | 21.11° C | 34% | 1024.8 hPa | 0 mm | - | - | - |
| 1777653364 | 22.22° C | 33% | 1024.3 hPa | 0 mm | - | - | - |
| 1777651743 | 23.33° C | 33% | 1024.6 hPa | 0 mm | - | - | - |
| 1777651204 | 22.22° C | 33% | 1024.6 hPa | 0 mm | - | - | - |
| 1777646164 | 23.33° C | 29% | 1024.9 hPa | 0 mm | - | - | - |
| 1777645624 | 23.33° C | 31% | 1025 hPa | 0 mm | - | - | - |
* Rain latest hour (hover to see other rain measurements)
** Current wind speed in m/s (hover to see current wind gust speed)